createdAt,value
2019-03-22T00:00:34.982Z,34.03
2019-03-22T00:03:03.561Z,37.08
2019-03-22T00:05:32.121Z,36.55
2019-03-22T00:08:00.705Z,38.10
2019-03-22T00:10:29.266Z,41.53
2019-03-22T00:12:57.909Z,42.08
2019-03-22T00:15:26.470Z,36.33
2019-03-22T00:17:55.054Z,39.35
2019-03-22T00:20:23.608Z,36.93
2019-03-22T00:22:52.197Z,38.58
2019-03-22T00:25:20.755Z,44.98
2019-03-22T00:27:49.334Z,47.70
2019-03-22T00:30:17.956Z,32.78
2019-03-22T00:32:46.513Z,34.88
2019-03-22T00:35:15.165Z,31.25
2019-03-22T00:37:43.718Z,39.42
2019-03-22T00:40:14.111Z,33.42
2019-03-22T00:42:42.666Z,38.45
2019-03-22T00:45:11.772Z,35.25
2019-03-22T00:47:40.329Z,40.05
2019-03-22T00:50:13.194Z,37.70
2019-03-22T00:52:41.753Z,38.78
2019-03-22T00:55:10.565Z,38.90
2019-03-22T00:57:39.125Z,45.90
2019-03-22T01:00:10.381Z,39.85
2019-03-22T01:02:38.942Z,37.55
2019-03-22T01:05:08.756Z,35.25
2019-03-22T01:07:37.393Z,35.90
2019-03-22T01:10:11.162Z,33.30
2019-03-22T01:12:39.798Z,40.40
2019-03-22T01:15:10.994Z,35.15
2019-03-22T01:17:39.548Z,37.15
2019-03-22T01:20:09.469Z,38.90
2019-03-22T01:22:38.084Z,42.80
2019-03-22T01:25:07.755Z,36.33
2019-03-22T01:27:40.936Z,36.42
2019-03-22T01:30:15.460Z,43.87
2019-03-22T01:32:44.194Z,38.35
2019-03-22T01:35:12.944Z,35.25
2019-03-22T01:37:41.506Z,34.45
2019-03-22T01:40:11.821Z,37.15
2019-03-22T01:42:40.454Z,35.60
2019-03-22T01:45:13.506Z,34.98
2019-03-22T01:47:42.067Z,37.98
2019-03-22T01:50:15.505Z,35.00
2019-03-22T01:52:44.127Z,39.18
2019-03-22T01:55:12.841Z,46.63
2019-03-22T01:57:52.502Z,44.23
2019-03-22T02:00:16.228Z,42.43
2019-03-22T02:02:44.863Z,42.50
2019-03-22T02:05:13.669Z,38.45
2019-03-22T02:07:42.224Z,38.90
2019-03-22T02:10:14.289Z,38.67
2019-03-22T02:12:42.988Z,45.05
2019-03-22T02:15:15.574Z,36.10
2019-03-22T02:17:44.474Z,45.43
2019-03-22T02:20:17.561Z,39.50
2019-03-22T02:22:46.113Z,34.45
2019-03-22T02:25:15.024Z,37.42
2019-03-22T02:27:43.953Z,38.73
2019-03-22T02:30:17.074Z,40.00
2019-03-22T02:32:45.637Z,40.33
2019-03-22T02:35:27.455Z,36.53
2019-03-22T02:37:44.562Z,37.45
2019-03-22T02:40:13.575Z,40.08
2019-03-22T02:42:42.129Z,36.70
2019-03-22T02:45:12.646Z,37.45
2019-03-22T02:47:41.217Z,34.55
2019-03-22T02:50:18.828Z,39.33
2019-03-22T02:52:42.268Z,31.60
2019-03-22T02:55:11.689Z,32.10
2019-03-22T02:57:40.244Z,36.75
2019-03-22T03:00:14.363Z,37.08
2019-03-22T03:02:42.996Z,34.15
2019-03-22T03:05:12.015Z,40.28
2019-03-22T03:07:40.565Z,41.60
2019-03-22T03:10:11.866Z,36.45
2019-03-22T03:12:40.423Z,40.70
2019-03-22T03:15:16.614Z,38.83
2019-03-22T03:17:45.190Z,43.92
2019-03-22T03:20:16.847Z,39.48
2019-03-22T03:22:45.395Z,35.28
2019-03-22T03:25:14.789Z,34.63
2019-03-22T03:27:43.369Z,38.92
2019-03-22T03:30:19.663Z,41.13
2019-03-22T03:32:48.274Z,46.73
2019-03-22T03:35:17.041Z,42.33
2019-03-22T03:37:45.603Z,45.25
2019-03-22T03:40:14.997Z,41.50
2019-03-22T03:42:43.571Z,36.58
2019-03-22T03:45:35.495Z,43.63
2019-03-22T03:48:09.112Z,46.37
2019-03-22T03:50:38.270Z,40.35
2019-03-22T03:53:06.938Z,41.50
2019-03-22T03:55:35.758Z,45.25
2019-03-22T03:58:05.083Z,45.17
2019-03-22T04:00:33.685Z,44.63
2019-03-22T04:03:02.267Z,41.18
2019-03-22T04:05:30.830Z,44.40
2019-03-22T04:07:59.420Z,51.70
2019-03-22T04:10:27.974Z,41.60
2019-03-22T04:12:56.549Z,46.70
2019-03-22T04:15:25.184Z,41.95
2019-03-22T04:17:53.769Z,39.50
2019-03-22T04:20:22.418Z,39.30
2019-03-22T04:22:51.026Z,42.60
2019-03-22T04:25:19.588Z,37.63
2019-03-22T04:27:48.150Z,36.05
2019-03-22T04:30:16.777Z,31.82
2019-03-22T04:32:45.348Z,41.40
2019-03-22T04:35:14.065Z,39.90
2019-03-22T04:37:42.636Z,37.98
2019-03-22T04:40:30.228Z,36.93
2019-03-22T04:42:58.859Z,39.80
2019-03-22T04:45:30.231Z,34.10
2019-03-22T04:48:02.230Z,39.45
2019-03-22T04:50:33.030Z,35.08
2019-03-22T04:53:03.250Z,50.55
2019-03-22T04:55:33.830Z,45.58
2019-03-22T04:58:03.957Z,44.05
2019-03-22T05:00:33.444Z,39.23
2019-03-22T05:03:03.171Z,42.13
2019-03-22T05:05:31.865Z,39.27
2019-03-22T05:08:01.118Z,50.35
2019-03-22T05:10:30.409Z,40.65
2019-03-22T05:13:01.024Z,39.15
2019-03-22T05:15:31.530Z,40.58
2019-03-22T05:18:01.550Z,33.58
2019-03-22T05:20:31.547Z,35.90
2019-03-22T05:23:00.516Z,35.25
2019-03-22T05:25:30.177Z,34.23
2019-03-22T05:28:02.093Z,35.90
2019-03-22T05:30:48.581Z,40.08
2019-03-22T05:33:17.161Z,31.87
2019-03-22T05:35:45.726Z,38.02
2019-03-22T05:38:14.310Z,38.55
2019-03-22T05:40:42.873Z,37.70
2019-03-22T05:43:11.450Z,33.60
2019-03-22T05:45:40.065Z,33.38
2019-03-22T05:48:08.642Z,40.33
2019-03-22T05:50:37.202Z,39.18
2019-03-22T05:53:05.786Z,41.45
2019-03-22T05:55:34.347Z,45.00
2019-03-22T05:58:02.932Z,41.53
2019-03-22T06:00:31.489Z,47.38
2019-03-22T06:03:00.070Z,43.00
2019-03-22T06:05:28.629Z,48.48
2019-03-22T06:07:57.208Z,50.75
2019-03-22T06:10:25.768Z,55.83
2019-03-22T06:12:54.339Z,49.77
2019-03-22T06:15:22.892Z,50.35
2019-03-22T06:17:52.119Z,54.15
2019-03-22T06:20:20.844Z,49.58
2019-03-22T06:22:49.469Z,53.25
2019-03-22T06:25:17.980Z,49.90
2019-03-22T06:27:46.561Z,51.33
2019-03-22T06:30:15.256Z,65.28
2019-03-22T06:32:43.833Z,56.88
2019-03-22T06:35:12.465Z,63.55
2019-03-22T06:37:41.037Z,56.92
2019-03-22T06:40:09.734Z,61.10
2019-03-22T06:42:38.361Z,77.00
2019-03-22T06:45:07.509Z,77.75
2019-03-22T06:47:36.075Z,61.73
2019-03-22T06:50:07.574Z,62.38
2019-03-22T06:52:36.132Z,62.38
2019-03-22T06:55:06.653Z,55.38
2019-03-22T06:57:35.208Z,40.55
2019-03-22T07:00:09.010Z,47.60
2019-03-22T07:02:37.645Z,41.48
2019-03-22T07:05:06.964Z,30.77
2019-03-22T07:07:35.532Z,45.90
2019-03-22T07:10:05.847Z,40.58
2019-03-22T07:12:34.404Z,51.92
2019-03-22T07:15:03.352Z,26.10
2019-03-22T07:17:31.905Z,40.88
2019-03-22T07:20:00.486Z,41.70
2019-03-22T07:22:29.037Z,32.53
2019-03-22T07:24:58.094Z,49.13
2019-03-22T07:27:26.657Z,47.90
2019-03-22T07:29:55.229Z,46.20
2019-03-22T07:32:23.784Z,24.32
2019-03-22T07:34:52.390Z,38.17
2019-03-22T07:37:20.926Z,42.90
2019-03-22T07:39:49.513Z,39.90
2019-03-22T07:42:18.137Z,40.83
2019-03-22T07:44:46.726Z,41.15
2019-03-22T07:47:15.277Z,33.98
2019-03-22T07:49:43.853Z,40.58
2019-03-22T07:52:12.409Z,37.70
2019-03-22T07:54:40.994Z,44.63
2019-03-22T07:57:09.553Z,33.73
2019-03-22T07:59:38.130Z,35.83
2019-03-22T08:02:06.693Z,40.98
2019-03-22T08:04:35.264Z,39.95
2019-03-22T08:07:03.825Z,19.17
2019-03-22T08:09:32.410Z,21.82
2019-03-22T08:12:01.246Z,29.40
2019-03-22T08:14:29.817Z,22.02
2019-03-22T08:16:58.378Z,33.20
2019-03-22T08:19:26.960Z,38.15
2019-03-22T08:21:55.531Z,37.23
2019-03-22T08:24:24.097Z,35.13
2019-03-22T08:26:52.654Z,43.65
2019-03-22T08:29:21.261Z,50.67
2019-03-22T08:31:49.804Z,49.00
2019-03-22T08:34:18.387Z,46.15
2019-03-22T08:36:46.945Z,39.67
2019-03-22T08:39:15.580Z,45.12
2019-03-22T08:41:44.152Z,43.68
2019-03-22T08:44:12.702Z,45.70
2019-03-22T08:46:41.269Z,29.12
2019-03-22T08:49:10.034Z,49.95
2019-03-22T08:51:38.732Z,43.13
2019-03-22T08:54:07.294Z,41.75
2019-03-22T08:56:36.332Z,44.25
2019-03-22T08:59:05.043Z,41.37
2019-03-22T09:01:33.626Z,35.20
2019-03-22T09:04:02.227Z,35.60
2019-03-22T09:06:30.804Z,45.70
2019-03-22T09:08:59.351Z,49.03
2019-03-22T09:11:27.970Z,33.88
2019-03-22T09:13:56.532Z,37.48
2019-03-22T09:16:25.088Z,39.05
2019-03-22T09:18:53.787Z,39.48
2019-03-22T09:21:22.373Z,44.27
2019-03-22T09:23:50.934Z,36.73
2019-03-22T09:26:20.117Z,38.23
2019-03-22T09:28:48.782Z,45.60
2019-03-22T09:31:17.373Z,30.68
2019-03-22T09:33:45.970Z,36.95
2019-03-22T09:36:14.584Z,32.95
2019-03-22T09:38:43.138Z,36.73
2019-03-22T09:41:11.708Z,27.93
2019-03-22T09:43:40.297Z,40.15
2019-03-22T09:46:08.878Z,40.38
2019-03-22T09:48:37.439Z,35.45
2019-03-22T09:51:06.046Z,29.75
2019-03-22T09:53:34.590Z,38.17
2019-03-22T09:56:03.218Z,33.65
2019-03-22T09:58:31.754Z,32.50
2019-03-22T10:01:00.386Z,21.35
2019-03-22T10:03:28.928Z,22.82
2019-03-22T10:05:57.496Z,27.22
2019-03-22T10:08:26.069Z,38.48
2019-03-22T10:10:54.710Z,36.25
2019-03-22T10:13:23.244Z,25.32
2019-03-22T10:15:51.833Z,31.37
2019-03-22T10:18:20.410Z,28.75
2019-03-22T10:20:49.003Z,31.97
2019-03-22T10:23:17.572Z,28.05
2019-03-22T10:25:46.193Z,36.00
2019-03-22T10:28:14.807Z,35.90
2019-03-22T10:30:43.337Z,33.28
2019-03-22T10:33:22.042Z,31.52
2019-03-22T10:35:42.255Z,33.83
2019-03-22T10:38:16.385Z,30.95
2019-03-22T10:40:41.225Z,29.07
2019-03-22T10:43:09.794Z,28.95
2019-03-22T10:45:38.381Z,30.87
2019-03-22T10:48:06.950Z,21.40
2019-03-22T10:50:35.514Z,33.90
2019-03-22T10:53:04.136Z,29.27
2019-03-22T10:55:35.409Z,29.90
2019-03-22T10:58:02.942Z,31.52
2019-03-22T11:00:31.513Z,24.52
2019-03-22T11:03:00.165Z,19.23
2019-03-22T11:05:28.672Z,40.77
2019-03-22T11:07:57.279Z,32.88
2019-03-22T11:10:25.918Z,28.38
2019-03-22T11:12:54.496Z,36.60
2019-03-22T11:15:23.993Z,33.17
2019-03-22T11:17:52.756Z,37.70
2019-03-22T11:20:21.325Z,37.83
2019-03-22T11:22:49.913Z,36.27
2019-03-22T11:25:18.490Z,31.90
2019-03-22T11:27:47.077Z,24.47
2019-03-22T11:30:18.285Z,39.77
2019-03-22T11:32:46.944Z,35.30
2019-03-22T11:35:15.740Z,33.13
2019-03-22T11:37:44.393Z,30.43
2019-03-22T11:40:15.603Z,35.93
2019-03-22T11:42:44.186Z,24.13
2019-03-22T11:45:15.833Z,28.40
2019-03-22T11:47:44.417Z,28.53
2019-03-22T11:50:13.134Z,41.48
2019-03-22T11:52:41.725Z,41.13
2019-03-22T11:55:12.234Z,46.60
2019-03-22T11:57:40.820Z,39.53
2019-03-22T12:00:14.853Z,36.60
2019-03-22T12:02:43.439Z,43.47
2019-03-22T12:05:12.147Z,36.20
2019-03-22T12:07:40.733Z,35.93
2019-03-22T12:10:11.846Z,43.63
2019-03-22T12:12:40.442Z,43.83
2019-03-22T12:15:11.446Z,42.13
2019-03-22T12:17:40.035Z,40.13
2019-03-22T12:20:11.682Z,44.13
2019-03-22T12:22:40.277Z,36.27
2019-03-22T12:25:11.178Z,43.50
2019-03-22T12:27:39.765Z,44.20
2019-03-22T12:30:11.409Z,46.27
2019-03-22T12:32:40.002Z,39.83
2019-03-22T12:35:09.793Z,41.70
2019-03-22T12:37:38.382Z,41.47
2019-03-22T12:40:10.253Z,29.80
2019-03-22T12:42:38.843Z,40.80
2019-03-22T12:45:13.221Z,36.90
2019-03-22T12:47:41.806Z,37.07
2019-03-22T12:50:10.728Z,38.90
2019-03-22T12:52:39.317Z,41.70
2019-03-22T12:55:09.830Z,33.40
2019-03-22T12:57:38.415Z,36.70
2019-03-22T13:00:10.062Z,37.30
2019-03-22T13:02:42.154Z,40.87
2019-03-22T13:05:09.102Z,43.67
2019-03-22T13:07:37.684Z,40.60
2019-03-22T13:10:12.356Z,38.77
2019-03-22T13:12:40.941Z,39.47
2019-03-22T13:15:10.197Z,37.20
2019-03-22T13:17:38.853Z,38.43
2019-03-22T13:20:12.021Z,32.00
2019-03-22T13:22:40.606Z,30.20
2019-03-22T13:25:10.018Z,35.43
2019-03-22T13:27:38.679Z,28.13
2019-03-22T13:30:10.062Z,30.73
2019-03-22T13:32:38.647Z,34.10
2019-03-22T13:35:07.349Z,27.93
2019-03-22T13:37:35.938Z,31.30
2019-03-22T13:40:05.946Z,38.70
2019-03-22T13:42:34.540Z,29.87
2019-03-22T13:45:03.807Z,37.83
2019-03-22T13:47:32.387Z,35.13
2019-03-22T13:50:00.954Z,29.40
2019-03-22T13:52:29.538Z,31.83
2019-03-22T13:54:58.173Z,30.87
2019-03-22T13:57:26.763Z,36.00
2019-03-22T13:59:55.328Z,26.30
2019-03-22T14:02:23.894Z,27.77
2019-03-22T14:04:52.487Z,25.93
2019-03-22T14:07:21.049Z,28.20
2019-03-22T14:09:49.630Z,26.57
2019-03-22T14:12:18.189Z,31.93
2019-03-22T14:14:46.782Z,24.40
2019-03-22T14:17:15.422Z,25.07
2019-03-22T14:19:44.006Z,29.50
2019-03-22T14:22:12.570Z,23.00
2019-03-22T14:24:41.160Z,20.63
2019-03-22T14:27:10.094Z,31.40
2019-03-22T14:29:38.680Z,24.73
2019-03-22T14:32:07.955Z,28.87
2019-03-22T14:34:36.603Z,21.33
2019-03-22T14:37:05.170Z,27.77
2019-03-22T14:39:33.752Z,32.40
2019-03-22T14:42:02.316Z,34.17
2019-03-22T14:44:30.981Z,27.97
2019-03-22T14:46:59.546Z,25.50
2019-03-22T14:49:28.136Z,28.57
2019-03-22T14:51:56.700Z,19.93
2019-03-22T14:54:25.298Z,25.97
2019-03-22T14:56:53.861Z,25.00
2019-03-22T14:59:22.518Z,28.20
2019-03-22T15:01:51.083Z,20.23
2019-03-22T15:04:19.678Z,35.07
2019-03-22T15:06:48.243Z,29.30
2019-03-22T15:09:16.839Z,27.97
2019-03-22T15:11:45.396Z,34.20
2019-03-22T15:14:31.902Z,25.80
2019-03-22T15:17:18.659Z,29.27
2019-03-22T15:20:00.981Z,37.63
2019-03-22T15:22:31.178Z,29.30
2019-03-22T15:25:17.572Z,44.27
2019-03-22T15:27:50.446Z,34.73
2019-03-22T15:30:23.391Z,28.90
2019-03-22T15:33:10.041Z,35.03
2019-03-22T15:35:40.404Z,21.80
2019-03-22T15:38:10.954Z,33.37
2019-03-22T15:40:39.546Z,29.73
2019-03-22T15:43:08.112Z,40.40
2019-03-22T15:45:36.702Z,31.50
2019-03-22T15:48:05.261Z,36.97
2019-03-22T15:50:33.852Z,37.10
2019-03-22T15:53:02.418Z,38.60
2019-03-22T15:55:31.114Z,27.13
2019-03-22T15:57:59.645Z,37.57
2019-03-22T16:00:28.230Z,39.67
2019-03-22T16:02:56.790Z,44.70
2019-03-22T16:05:25.369Z,36.80
2019-03-22T16:07:53.943Z,32.30
2019-03-22T16:10:22.539Z,24.43
2019-03-22T16:12:51.104Z,40.40
2019-03-22T16:15:19.835Z,45.60
2019-03-22T16:17:48.405Z,43.83
2019-03-22T16:20:17.500Z,43.93
2019-03-22T16:22:46.076Z,48.90
2019-03-22T16:25:15.296Z,42.57
2019-03-22T16:27:43.870Z,23.40
2019-03-22T16:30:14.670Z,40.43
2019-03-22T16:32:43.388Z,47.70
2019-03-22T16:35:12.822Z,47.37
2019-03-22T16:37:41.389Z,35.00
2019-03-22T16:40:11.114Z,45.63
2019-03-22T16:42:39.863Z,27.77
2019-03-22T16:45:10.489Z,20.30
2019-03-22T16:47:39.055Z,27.97
2019-03-22T16:50:22.925Z,23.77
2019-03-22T16:52:51.499Z,53.92
2019-03-22T16:55:20.115Z,42.35
2019-03-22T16:57:48.685Z,28.23
2019-03-22T17:00:17.459Z,22.65
2019-03-22T17:02:46.031Z,25.80
2019-03-22T17:05:15.401Z,29.20
2019-03-22T17:07:44.122Z,59.38
2019-03-22T17:10:13.950Z,23.12
2019-03-22T17:12:42.538Z,30.85
2019-03-22T17:15:11.168Z,18.82
2019-03-22T17:17:39.757Z,21.87
2019-03-22T17:20:08.662Z,29.42
2019-03-22T17:22:37.244Z,25.02
2019-03-22T17:25:07.563Z,25.85
2019-03-22T17:27:36.149Z,20.30
2019-03-22T17:30:06.827Z,38.58
2019-03-22T17:32:35.728Z,20.60
2019-03-22T17:35:07.990Z,27.02
2019-03-22T17:37:36.587Z,20.45
2019-03-22T17:40:06.789Z,20.85
2019-03-22T17:42:35.371Z,16.73
2019-03-22T17:45:07.142Z,43.38
2019-03-22T17:47:35.727Z,48.42
2019-03-22T17:50:08.141Z,20.20
2019-03-22T17:52:36.718Z,20.97
2019-03-22T17:55:07.024Z,24.47
2019-03-22T17:57:35.598Z,52.30
2019-03-22T18:00:17.314Z,39.55
2019-03-22T18:02:45.893Z,32.10
2019-03-22T18:05:14.693Z,28.50
2019-03-22T18:07:43.344Z,18.50
2019-03-22T18:10:12.950Z,21.02
2019-03-22T18:12:41.598Z,26.52
2019-03-22T18:15:11.798Z,31.45
2019-03-22T18:17:40.803Z,24.47
2019-03-22T18:20:11.689Z,16.52
2019-03-22T18:22:40.275Z,16.25
2019-03-22T18:25:11.344Z,23.32
2019-03-22T18:27:39.913Z,23.92
2019-03-22T18:30:16.123Z,19.20
2019-03-22T18:32:44.665Z,19.23
2019-03-22T18:35:14.254Z,15.80
2019-03-22T18:37:42.906Z,16.75
2019-03-22T18:40:15.662Z,18.17
2019-03-22T18:42:44.239Z,19.45
2019-03-22T18:45:13.637Z,21.87
2019-03-22T18:47:42.573Z,27.82
2019-03-22T18:50:12.165Z,22.00
2019-03-22T18:52:40.809Z,26.35
2019-03-22T18:55:10.114Z,23.38
2019-03-22T18:57:38.703Z,27.25
2019-03-22T19:00:10.202Z,27.77
2019-03-22T19:02:38.794Z,29.37
2019-03-22T19:05:08.401Z,38.42
2019-03-22T19:07:36.953Z,28.75
2019-03-22T19:10:09.400Z,26.30
2019-03-22T19:12:37.964Z,22.90
2019-03-22T19:15:09.563Z,22.00
2019-03-22T19:17:38.193Z,26.27
2019-03-22T19:20:09.919Z,17.75
2019-03-22T19:22:38.482Z,19.37
2019-03-22T19:25:08.801Z,20.92
2019-03-22T19:27:37.366Z,20.68
2019-03-22T19:30:12.362Z,22.25
2019-03-22T19:32:40.926Z,25.82
2019-03-22T19:35:10.652Z,24.85
2019-03-22T19:37:39.207Z,23.15
2019-03-22T19:40:13.339Z,26.50
2019-03-22T19:42:42.570Z,29.18
2019-03-22T19:45:12.598Z,26.85
2019-03-22T19:47:41.224Z,26.82
2019-03-22T19:50:16.505Z,26.05
2019-03-22T19:52:45.070Z,24.70
2019-03-22T19:55:13.896Z,25.57
2019-03-22T19:57:42.450Z,29.27
2019-03-22T20:00:16.653Z,28.15
2019-03-22T20:02:45.213Z,27.80
2019-03-22T20:05:16.876Z,32.60
2019-03-22T20:07:45.426Z,34.67
2019-03-22T20:10:14.141Z,33.80
2019-03-22T20:12:42.706Z,45.43
2019-03-22T20:15:11.426Z,41.55
2019-03-22T20:17:39.986Z,43.23
2019-03-22T20:20:09.614Z,43.35
2019-03-22T20:22:38.169Z,35.78
2019-03-22T20:25:10.142Z,41.48
2019-03-22T20:27:38.709Z,36.30
2019-03-22T20:30:12.153Z,31.85
2019-03-22T20:32:40.732Z,43.58
2019-03-22T20:35:16.345Z,38.85
2019-03-22T20:37:39.862Z,43.73
2019-03-22T20:40:13.593Z,37.45
2019-03-22T20:42:42.230Z,47.60
2019-03-22T20:45:11.340Z,40.12
2019-03-22T20:47:39.915Z,37.88
2019-03-22T20:50:10.539Z,33.33
2019-03-22T20:52:39.106Z,32.45
2019-03-22T20:55:08.923Z,31.60
2019-03-22T20:57:37.545Z,36.77
2019-03-22T21:00:08.261Z,38.58
2019-03-22T21:02:36.824Z,33.53
2019-03-22T21:05:06.747Z,31.75
2019-03-22T21:07:35.319Z,33.35
2019-03-22T21:10:05.847Z,32.80
2019-03-22T21:12:34.395Z,32.48
2019-03-22T21:15:03.642Z,38.23
2019-03-22T21:17:32.199Z,40.58
2019-03-22T21:20:00.782Z,34.83
2019-03-22T21:22:29.341Z,35.83
2019-03-22T21:24:57.913Z,46.08
2019-03-22T21:27:26.478Z,32.95
2019-03-22T21:29:55.060Z,40.98
2019-03-22T21:32:23.608Z,33.63
2019-03-22T21:34:52.194Z,38.42
2019-03-22T21:37:20.750Z,36.33
2019-03-22T21:39:49.357Z,34.00
2019-03-22T21:42:17.913Z,37.88
2019-03-22T21:44:46.469Z,41.85
2019-03-22T21:47:15.058Z,33.45
2019-03-22T21:49:43.658Z,36.13
2019-03-22T21:52:12.233Z,39.42
2019-03-22T21:54:40.797Z,33.13
2019-03-22T21:57:09.378Z,30.75
2019-03-22T21:59:37.933Z,35.03
2019-03-22T22:02:06.806Z,38.50
2019-03-22T22:04:35.349Z,40.50
2019-03-22T22:07:03.941Z,36.42
2019-03-22T22:09:32.502Z,32.48
2019-03-22T22:12:01.086Z,37.30
2019-03-22T22:14:40.213Z,39.13
2019-03-22T22:16:59.884Z,32.10
2019-03-22T22:19:28.445Z,34.90
2019-03-22T22:21:57.025Z,39.05
2019-03-22T22:24:25.778Z,39.08
2019-03-22T22:26:54.453Z,32.65
2019-03-22T22:29:22.997Z,40.60
2019-03-22T22:31:51.583Z,38.35
2019-03-22T22:34:20.149Z,31.77
2019-03-22T22:36:48.729Z,36.77
2019-03-22T22:39:17.294Z,34.67
2019-03-22T22:41:45.949Z,36.20
2019-03-22T22:44:14.512Z,36.48
2019-03-22T22:46:43.101Z,33.73
2019-03-22T22:49:11.649Z,33.40
2019-03-22T22:51:40.225Z,42.25
2019-03-22T22:54:08.782Z,36.45
2019-03-22T22:56:37.357Z,42.30
2019-03-22T22:59:05.921Z,36.77
2019-03-22T23:01:34.577Z,38.13
2019-03-22T23:04:03.144Z,40.12
2019-03-22T23:06:31.728Z,39.15
2019-03-22T23:09:00.286Z,30.00
2019-03-22T23:11:28.874Z,45.15
2019-03-22T23:13:57.429Z,41.95
2019-03-22T23:16:26.154Z,37.80
2019-03-22T23:18:54.663Z,39.60
2019-03-22T23:21:23.218Z,38.50
2019-03-22T23:23:51.809Z,40.43
2019-03-22T23:26:20.362Z,31.90
2019-03-22T23:28:48.936Z,37.03
2019-03-22T23:31:17.506Z,40.23
2019-03-22T23:33:46.077Z,40.50
2019-03-22T23:36:20.291Z,41.90
2019-03-22T23:38:44.861Z,34.88
2019-03-22T23:41:13.418Z,38.78
2019-03-22T23:43:42.002Z,33.40
2019-03-22T23:46:10.565Z,40.88
2019-03-22T23:48:39.154Z,34.65
2019-03-22T23:51:07.719Z,43.25
2019-03-22T23:53:36.302Z,35.55
2019-03-22T23:56:04.858Z,45.40
2019-03-22T23:58:33.437Z,36.20
